Time;durP1;ratioP1;P1;durP2;ratioP2;P2;SDS_P1;SDS_P2;PMS_P1;PMS_P2;Temp;Humidity;BMP_temperature;BMP_pressure;BME280_temperature;BME280_humidity;BME280_pressure;Samples;Min_cycle;Max_cycle;Signal;HPM_P1;HPM_P2
2023/04/26 00:01:04;;;;;;;;;;;;;;;4.47;74.71;100873.13;5052374;28;19924;-69
2023/04/26 00:04:07;;;;;;;;;;;;;;;4.44;75.19;100871.47;5052257;28;19944;-69
2023/04/26 00:07:12;;;;;;;;;;;;;;;4.41;75.12;100872.41;5052275;28;20383;-68
2023/04/26 00:10:15;;;;;;;;;;;;;;;4.41;75.11;100882.75;5052283;28;20446;-68
2023/04/26 00:13:18;;;;;;;;;;;;;;;4.31;75.70;100885.56;5052260;28;19943;-68
2023/04/26 00:16:21;;;;;;;;;;;;;;;4.33;75.33;100887.22;5052087;28;20408;-68
2023/04/26 00:19:24;;;;;;;;;;;;;;;4.28;75.03;100890.81;5052057;28;19928;-69
2023/04/26 00:22:27;;;;;;;;;;;;;;;4.21;75.74;100890.06;5052127;28;19924;-68
2023/04/26 00:25:30;;;;;;;;;;;;;;;4.20;75.34;100893.53;5039805;28;19927;-68
2023/04/26 00:28:33;;;;;;;;;;;;;;;4.12;75.46;100892.84;5052106;28;20008;-68
2023/04/26 00:31:36;;;;;;;;;;;;;;;4.06;75.83;100903.34;5051242;28;19970;-68
2023/04/26 00:34:40;;;;;;;;;;;;;;;4.09;75.09;100900.69;5039795;28;19966;-69
2023/04/26 00:37:43;;;;;;;;;;;;;;;4.08;75.43;100894.63;5055996;28;20014;-69
2023/04/26 00:40:46;;;;;;;;;;;;;;;3.94;75.27;100900.06;5055580;28;19923;-69
2023/04/26 00:43:49;;;;;;;;;;;;;;;3.92;75.57;100893.22;5055445;28;19923;-68
2023/04/26 00:46:52;;;;;;;;;;;;;;;3.95;75.17;100894.00;5043018;28;20441;-69
2023/04/26 00:49:55;;;;;;;;;;;;;;;3.92;75.29;100895.81;5043128;28;19928;-69
2023/04/26 00:53:00;;;;;;;;;;;;;;;3.80;76.01;100899.50;5043401;28;19962;-69
2023/04/26 00:56:05;;;;;;;;;;;;;;;3.76;75.48;100891.81;5055432;28;19998;-69
2023/04/26 00:59:08;;;;;;;;;;;;;;;3.76;75.87;100891.81;5042813;28;20331;-69
2023/04/26 01:02:12;;;;;;;;;;;;;;;3.76;75.68;100897.81;5042827;28;19924;-69
2023/04/26 01:05:15;;;;;;;;;;;;;;;3.75;76.01;100890.09;5055067;28;19998;-69
2023/04/26 01:12:01;;;;;;;;;;;;;;;3.64;75.60;100883.41;5054939;28;20291;-69
2023/04/26 01:15:05;;;;;;;;;;;;;;;3.64;75.59;100880.81;5031487;28;19928;-69
2023/04/26 01:18:08;;;;;;;;;;;;;;;3.65;75.80;100884.25;5042515;28;19943;-69
2023/04/26 01:21:18;;;;;;;;;;;;;;;3.52;75.99;100882.78;5054013;28;19924;-69
2023/04/26 01:24:21;;;;;;;;;;;;;;;3.52;75.63;100887.94;5042384;28;19928;-69
2023/04/26 01:27:24;;;;;;;;;;;;;;;3.45;76.37;100890.63;5054689;28;19923;-69
2023/04/26 01:30:27;;;;;;;;;;;;;;;3.43;76.82;100894.97;5042212;28;20384;-69
2023/04/26 01:33:30;;;;;;;;;;;;;;;3.40;76.80;100897.59;5054925;28;20289;-69
2023/04/26 01:36:33;;;;;;;;;;;;;;;3.42;76.51;100902.75;5042202;28;20016;-69
2023/04/26 01:39:36;;;;;;;;;;;;;;;3.38;75.95;100901.97;5042498;28;19939;-69
2023/04/26 01:42:39;;;;;;;;;;;;;;;3.26;76.27;100896.97;5054415;28;19924;-69
2023/04/26 01:45:45;;;;;;;;;;;;;;;3.33;76.24;100892.56;5054234;28;20415;-69
2023/04/26 01:49:07;;;;;;;;;;;;;;;3.40;75.41;100900.19;5054332;28;19923;-69
2023/04/26 01:52:09;;;;;;;;;;;;;;;3.37;75.60;100900.22;5054250;28;20008;-69
2023/04/26 01:55:12;;;;;;;;;;;;;;;3.33;76.01;100901.16;5054230;28;20330;-69
2023/04/26 01:58:15;;;;;;;;;;;;;;;3.23;76.07;100902.19;5014289;28;19979;-69
2023/04/26 02:01:19;;;;;;;;;;;;;;;3.21;76.26;100904.78;5014347;28;19999;-69
2023/04/26 02:04:23;;;;;;;;;;;;;;;3.20;76.01;100907.41;5014252;28;20388;-69
2023/04/26 02:07:26;;;;;;;;;;;;;;;3.16;76.17;100903.16;5014270;28;20234;-69
2023/04/26 02:10:32;;;;;;;;;;;;;;;3.23;75.93;100894.44;5013341;28;19944;-69
2023/04/26 02:13:35;;;;;;;;;;;;;;;3.15;75.72;100886.81;5013283;28;20302;-69
2023/04/26 02:16:41;;;;;;;;;;;;;;;3.13;76.03;100900.66;5013067;28;19928;-68
2023/04/26 02:19:43;;;;;;;;;;;;;;;3.13;76.51;100890.31;5013975;28;19972;-68
2023/04/26 02:22:46;;;;;;;;;;;;;;;3.16;76.91;100896.28;5013947;28;19973;-68
2023/04/26 02:25:51;;;;;;;;;;;;;;;3.18;76.55;100904.00;5013875;28;20333;-68
2023/04/26 02:28:54;;;;;;;;;;;;;;;3.21;76.45;100896.19;5014250;28;19924;-68
2023/04/26 02:31:57;;;;;;;;;;;;;;;3.14;76.83;100903.19;5013788;28;19940;-68
2023/04/26 02:35:00;;;;;;;;;;;;;;;3.11;76.73;100897.22;5012886;28;19979;-69
2023/04/26 02:38:03;;;;;;;;;;;;;;;3.15;75.45;100896.28;5012865;28;19972;-69
2023/04/26 02:41:06;;;;;;;;;;;;;;;3.03;75.92;100895.63;5001822;28;20063;-69
2023/04/26 02:44:10;;;;;;;;;;;;;;;2.90;76.27;100894.06;5012674;28;20285;-69
2023/04/26 02:47:15;;;;;;;;;;;;;;;2.86;76.31;100907.06;5012842;28;20027;-69
2023/04/26 02:50:18;;;;;;;;;;;;;;;2.79;76.40;100909.72;5012661;28;19925;-69
2023/04/26 02:53:21;;;;;;;;;;;;;;;2.87;76.51;100908.75;5012643;28;20025;-69
2023/04/26 02:56:24;;;;;;;;;;;;;;;2.89;76.84;100904.44;5021944;28;19928;-69
2023/04/26 02:59:28;;;;;;;;;;;;;;;2.83;77.01;100907.94;5040652;28;19946;-69
2023/04/26 03:02:32;;;;;;;;;;;;;;;2.85;76.90;100903.63;5052916;28;19923;-69
2023/04/26 03:05:34;;;;;;;;;;;;;;;2.88;77.06;100901.00;5052874;28;20395;-69
2023/04/26 03:08:38;;;;;;;;;;;;;;;2.96;76.96;100893.13;5040533;28;19939;-69
2023/04/26 03:11:41;;;;;;;;;;;;;;;3.05;76.74;100903.34;5040613;28;19924;-70
2023/04/26 03:14:45;;;;;;;;;;;;;;;3.02;76.01;100904.22;5052802;28;19927;-70
2023/04/26 03:17:48;;;;;;;;;;;;;;;2.99;76.58;100909.44;5040498;28;19924;-70
2023/04/26 03:20:52;;;;;;;;;;;;;;;2.97;76.76;100906.03;5040532;28;19924;-69
2023/04/26 03:23:56;;;;;;;;;;;;;;;2.97;77.29;100906.03;5052486;28;20446;-69
2023/04/26 03:26:59;;;;;;;;;;;;;;;2.98;77.43;100915.50;5040373;28;20340;-69
2023/04/26 03:30:03;;;;;;;;;;;;;;;2.96;78.23;100906.91;5052582;28;19927;-70
2023/04/26 03:33:07;;;;;;;;;;;;;;;2.81;78.42;100909.72;5040402;28;19924;-69
2023/04/26 03:36:11;;;;;;;;;;;;;;;2.96;77.73;100899.16;5052605;28;20300;-70
2023/04/26 03:39:15;;;;;;;;;;;;;;;2.90;78.06;100900.97;5052545;28;19970;-69
2023/04/26 03:42:20;;;;;;;;;;;;;;;2.78;78.66;100902.03;5051664;28;19970;-69
2023/04/26 03:45:25;;;;;;;;;;;;;;;2.47;79.83;100897.25;5040134;28;19927;-70
2023/04/26 03:48:28;;;;;;;;;;;;;;;2.56;80.55;100898.88;5053036;28;19943;-71
2023/04/26 03:51:31;;;;;;;;;;;;;;;2.70;80.32;100902.09;5040450;28;19970;-71
2023/04/26 03:54:35;;;;;;;;;;;;;;;2.57;79.75;100895.41;5052776;28;19924;-70
2023/04/26 03:57:38;;;;;;;;;;;;;;;2.52;79.75;100898.06;5040190;28;19928;-70
2023/04/26 04:00:42;;;;;;;;;;;;;;;2.59;80.12;100891.09;5040305;28;20015;-71
2023/04/26 04:03:46;;;;;;;;;;;;;;;2.73;79.33;100888.31;5052640;28;20065;-69
2023/04/26 04:06:51;;;;;;;;;;;;;;;2.79;78.50;100889.06;5029543;28;19924;-71
2023/04/26 04:09:54;;;;;;;;;;;;;;;2.79;78.69;100894.25;5053122;28;20323;-70
2023/04/26 04:12:58;;;;;;;;;;;;;;;2.79;79.11;100895.97;5044314;28;20430;-79
2023/04/26 04:16:01;;;;;;;;;;;;;;;2.70;79.38;100901.25;5043771;28;19935;-70
2023/04/26 04:19:05;;;;;;;;;;;;;;;2.55;79.96;100903.19;5056757;28;20293;-71
2023/04/26 04:22:08;;;;;;;;;;;;;;;2.52;80.17;100912.69;5053898;28;19924;-70
2023/04/26 04:25:12;;;;;;;;;;;;;;;2.61;80.19;100907.41;5042567;28;20293;-70
2023/04/26 04:28:17;;;;;;;;;;;;;;;2.78;79.92;100920.94;5043804;28;20284;-70
2023/04/26 04:31:21;;;;;;;;;;;;;;;2.90;79.23;100919.91;5043726;28;19924;-70
2023/04/26 04:34:25;;;;;;;;;;;;;;;2.91;79.22;100924.22;5056261;28;19963;-71
2023/04/26 04:41:47;;;;;;;;;;;;;;;2.89;78.35;100925.94;5054896;28;20016;-70
2023/04/26 04:44:50;;;;;;;;;;;;;;;2.62;79.32;100937.53;5043562;28;20415;-70
2023/04/26 04:47:55;;;;;;;;;;;;;;;2.55;79.67;100938.44;5043602;28;19975;-69
2023/04/26 04:50:59;;;;;;;;;;;;;;;2.37;80.56;100939.56;5055469;28;19923;-70
2023/04/26 04:54:12;;;;;;;;;;;;;;;2.46;80.81;100944.59;5043619;28;20050;-70
2023/04/26 04:57:15;;;;;;;;;;;;;;;2.57;80.67;100947.03;5043066;28;19979;-70
2023/04/26 05:00:20;;;;;;;;;;;;;;;2.72;79.80;100948.59;5043240;28;20004;-69
2023/04/26 05:03:28;;;;;;;;;;;;;;;2.71;79.57;100942.56;5042906;28;19970;-69
2023/04/26 05:06:32;;;;;;;;;;;;;;;2.70;79.77;100952.91;5041425;28;19975;-69
2023/04/26 05:09:36;;;;;;;;;;;;;;;2.64;79.79;100952.97;5053705;28;19928;-69
2023/04/26 05:12:39;;;;;;;;;;;;;;;2.65;79.85;100959.84;5041510;28;20346;-69
2023/04/26 05:16:03;;;;;;;;;;;;;;;2.64;79.84;100959.00;5042235;28;19924;-69
2023/04/26 05:19:12;;;;;;;;;;;;;;;2.71;79.25;100959.75;5053906;28;19971;-69
2023/04/26 05:22:17;;;;;;;;;;;;;;;2.77;79.05;100957.09;5053956;28;19928;-69
2023/04/26 05:25:27;;;;;;;;;;;;;;;2.70;79.24;100958.06;5054273;28;19940;-69
2023/04/26 05:28:36;;;;;;;;;;;;;;;2.74;79.19;100959.72;5042985;28;20403;-69
2023/04/26 05:31:58;;;;;;;;;;;;;;;2.78;79.47;100967.44;5043112;28;19943;-70
2023/04/26 05:35:25;;;;;;;;;;;;;;;2.62;79.61;100965.06;5016687;28;20019;-69
2023/04/26 05:38:29;;;;;;;;;;;;;;;2.80;79.61;100962.22;5055069;28;20412;-69
2023/04/26 05:41:39;;;;;;;;;;;;;;;2.79;79.21;100963.97;5043828;28;19923;-69
2023/04/26 05:44:42;;;;;;;;;;;;;;;2.87;79.70;100969.03;5054711;28;19928;-69
2023/04/26 05:47:46;;;;;;;;;;;;;;;2.94;80.41;100973.25;5054959;28;20046;-69
2023/04/26 05:50:51;;;;;;;;;;;;;;;3.00;80.62;100978.34;5042472;28;20004;-69
2023/04/26 05:53:54;;;;;;;;;;;;;;;2.84;79.97;100982.00;5054481;28;19943;-69
2023/04/26 05:56:57;;;;;;;;;;;;;;;2.80;80.52;100977.72;5042101;28;20304;-69
2023/04/26 06:00:04;;;;;;;;;;;;;;;2.72;80.97;100980.41;5042200;28;20007;-69
2023/04/26 06:03:17;;;;;;;;;;;;;;;2.60;81.22;100983.16;5054459;28;20157;-69
2023/04/26 06:06:20;;;;;;;;;;;;;;;2.91;81.02;100991.38;5042017;28;19927;-69
2023/04/26 06:09:25;;;;;;;;;;;;;;;3.03;80.34;100983.47;5041968;28;19924;-69
2023/04/26 06:12:28;;;;;;;;;;;;;;;3.01;80.47;100987.78;5041916;28;19943;-69
2023/04/26 06:15:31;;;;;;;;;;;;;;;3.18;80.78;100982.38;5041923;28;19962;-69
2023/04/26 06:18:35;;;;;;;;;;;;;;;3.28;80.79;100990.84;5041901;28;19927;-69
2023/04/26 06:21:38;;;;;;;;;;;;;;;3.27;80.67;100986.56;5041759;28;19923;-69
2023/04/26 06:24:42;;;;;;;;;;;;;;;3.29;81.17;100992.56;5041654;28;19974;-69
2023/04/26 06:27:45;;;;;;;;;;;;;;;3.47;81.40;100994.84;5041622;28;19970;-69
2023/04/26 06:30:48;;;;;;;;;;;;;;;3.64;80.66;100988.59;5041578;28;19970;-69
2023/04/26 06:33:52;;;;;;;;;;;;;;;3.75;80.55;100984.06;5052602;28;19928;-69
2023/04/26 06:36:54;;;;;;;;;;;;;;;3.83;79.87;100971.88;5041627;28;19935;-69
2023/04/26 06:40:01;;;;;;;;;;;;;;;3.89;79.91;100966.59;5041226;28;19923;-69
2023/04/26 06:43:04;;;;;;;;;;;;;;;3.99;79.32;100969.00;5052448;28;19924;-69
2023/04/26 06:46:21;;;;;;;;;;;;;;;4.08;79.42;100968.81;5040062;28;20368;-69
2023/04/26 06:49:29;;;;;;;;;;;;;;;4.18;78.98;100972.97;5040025;28;19923;-69
2023/04/26 06:52:33;;;;;;;;;;;;;;;4.29;78.79;100976.19;5052336;28;20018;-69
2023/04/26 06:55:36;;;;;;;;;;;;;;;4.41;78.94;100981.16;5053001;28;19924;-69
2023/04/26 06:59:00;;;;;;;;;;;;;;;4.53;78.56;100980.06;5013998;28;19928;-69
2023/04/26 07:07:00;;;;;;;;;;;;;;;4.88;77.64;100988.81;5014185;28;19928;-70
2023/04/26 07:10:04;;;;;;;;;;;;;;;5.03;78.00;100985.03;5014081;28;19923;-69
2023/04/26 07:13:17;;;;;;;;;;;;;;;5.18;78.14;100970.91;5013749;28;19924;-69
2023/04/26 07:16:41;;;;;;;;;;;;;;;5.33;77.35;100968.81;5014131;28;20329;-69
2023/04/26 07:25:16;;;;;;;;;;;;;;;5.72;75.74;100967.88;5013573;28;19928;-69
2023/04/26 07:28:51;;;;;;;;;;;;;;;5.87;75.16;100962.31;5013611;28;19980;-69
2023/04/26 07:31:55;;;;;;;;;;;;;;;5.92;74.46;100960.41;5012680;28;19980;-69
2023/04/26 07:34:58;;;;;;;;;;;;;;;6.00;73.34;100955.94;5013377;28;19924;-69
2023/04/26 07:38:02;;;;;;;;;;;;;;;6.14;72.19;100942.56;5013451;28;19924;-69
2023/04/26 07:41:05;;;;;;;;;;;;;;;6.18;68.73;100944.16;5011793;28;20058;-70
2023/04/26 07:44:09;;;;;;;;;;;;;;;6.28;67.92;100950.81;5013470;28;20008;-69
2023/04/26 07:47:12;;;;;;;;;;;;;;;6.42;67.59;100947.00;5017401;28;19924;-69
2023/04/26 07:50:15;;;;;;;;;;;;;;;6.50;65.76;100943.25;5016118;28;19975;-69
2023/04/26 07:53:18;;;;;;;;;;;;;;;6.56;64.94;100946.59;5016611;28;19924;-69
2023/04/26 07:56:23;;;;;;;;;;;;;;;6.78;65.16;100945.06;5024404;28;19932;-67
2023/04/26 07:59:26;;;;;;;;;;;;;;;6.93;62.44;100938.56;5055422;28;19942;-67
2023/04/26 08:03:02;;;;;;;;;;;;;;;7.04;63.21;100940.81;5055828;28;20398;-67
2023/04/26 08:06:05;;;;;;;;;;;;;;;7.29;63.35;100940.91;5044095;28;19999;-68
2023/04/26 08:09:08;;;;;;;;;;;;;;;7.48;62.86;100941.16;5057030;28;20328;-68
2023/04/26 08:12:13;;;;;;;;;;;;;;;7.60;60.26;100941.63;5056471;28;20015;-68
2023/04/26 08:15:16;;;;;;;;;;;;;;;7.64;58.81;100937.16;5056290;28;19924;-68
2023/04/26 08:18:19;;;;;;;;;;;;;;;7.65;58.48;100939.69;5056316;28;20324;-68
2023/04/26 08:21:22;;;;;;;;;;;;;;;7.86;59.50;100926.88;5056217;28;19924;-68
2023/04/26 08:24:25;;;;;;;;;;;;;;;7.95;57.82;100925.72;5056038;28;19928;-68
2023/04/26 08:27:28;;;;;;;;;;;;;;;8.03;58.85;100926.28;5056193;28;19939;-68
2023/04/26 08:30:32;;;;;;;;;;;;;;;7.96;57.52;100925.63;5055998;28;19924;-68
2023/04/26 08:33:35;;;;;;;;;;;;;;;7.88;57.88;100927.66;5056341;28;20007;-68
2023/04/26 08:36:38;;;;;;;;;;;;;;;8.00;58.76;100923.78;5043609;28;20403;-68
2023/04/26 08:39:41;;;;;;;;;;;;;;;8.04;58.26;100933.16;5055929;28;19924;-68
2023/04/26 08:42:44;;;;;;;;;;;;;;;8.06;57.19;100929.63;5055805;28;19924;-68
2023/04/26 08:45:47;;;;;;;;;;;;;;;7.91;55.85;100936.22;5055650;28;19927;-68
2023/04/26 08:48:58;;;;;;;;;;;;;;;8.07;55.22;100933.94;5055776;28;19928;-68
2023/04/26 08:52:02;;;;;;;;;;;;;;;8.31;55.47;100928.75;5055665;28;20008;-68
2023/04/26 08:55:08;;;;;;;;;;;;;;;8.49;52.37;100925.50;5043463;28;20011;-68
2023/04/26 08:58:11;;;;;;;;;;;;;;;8.36;50.23;100926.81;5055321;28;19927;-68
2023/04/26 09:01:15;;;;;;;;;;;;;;;8.23;50.99;100931.63;5055457;28;20430;-70
2023/04/26 09:04:18;;;;;;;;;;;;;;;8.23;50.47;100913.41;5055305;28;19928;-68
2023/04/26 09:07:26;;;;;;;;;;;;;;;8.42;51.94;100918.78;5042997;28;20439;-76
2023/04/26 09:10:29;;;;;;;;;;;;;;;8.75;54.37;100923.66;5055565;28;19924;-72
2023/04/26 09:13:32;;;;;;;;;;;;;;;8.87;52.13;100917.09;5055875;28;19962;-71
2023/04/26 09:16:35;;;;;;;;;;;;;;;8.76;50.87;100909.72;5055523;28;19923;-71
2023/04/26 09:19:41;;;;;;;;;;;;;;;8.83;49.91;100901.59;5055206;28;19939;-71
2023/04/26 09:22:45;;;;;;;;;;;;;;;8.92;50.71;100910.81;5053831;28;19963;-71
2023/04/26 09:25:49;;;;;;;;;;;;;;;9.06;49.79;100902.44;5055253;28;19995;-70
2023/04/26 09:29:11;;;;;;;;;;;;;;;9.20;49.77;100901.91;5055228;28;19927;-70
2023/04/26 09:32:14;;;;;;;;;;;;;;;9.20;46.53;100894.06;5055202;28;19923;-70
2023/04/26 09:35:36;;;;;;;;;;;;;;;9.27;47.61;100887.69;5055575;28;19924;-70
2023/04/26 09:38:42;;;;;;;;;;;;;;;9.29;46.40;100899.75;5055070;28;20429;-72
2023/04/26 09:41:46;;;;;;;;;;;;;;;9.23;46.40;100899.16;5042769;28;19923;-71
2023/04/26 09:44:50;;;;;;;;;;;;;;;9.32;46.28;100898.78;5054770;28;19928;-71
2023/04/26 09:47:54;;;;;;;;;;;;;;;9.39;47.22;100895.00;5054900;28;19971;-70
2023/04/26 09:51:03;;;;;;;;;;;;;;;9.35;48.82;100897.78;5054795;28;19977;-75
2023/04/26 09:54:07;;;;;;;;;;;;;;;9.36;49.59;100895.13;5054589;28;20003;-70
2023/04/26 09:57:11;;;;;;;;;;;;;;;9.49;49.39;100895.47;5042194;28;20027;-72
2023/04/26 10:00:14;;;;;;;;;;;;;;;9.59;48.66;100888.09;5054450;28;19974;-74
2023/04/26 10:03:19;;;;;;;;;;;;;;;9.64;48.10;100884.38;5054474;28;19982;-75
2023/04/26 10:06:22;;;;;;;;;;;;;;;9.58;46.08;100889.88;5054508;28;19928;-76
2023/04/26 10:09:26;;;;;;;;;;;;;;;9.65;46.82;100883.47;5053737;28;19928;-72
2023/04/26 10:12:29;;;;;;;;;;;;;;;9.72;46.84;100879.66;5054568;28;19993;-74
2023/04/26 10:15:33;;;;;;;;;;;;;;;9.84;47.39;100880.91;5054224;28;20383;-74
2023/04/26 10:18:36;;;;;;;;;;;;;;;9.94;47.26;100869.16;5054194;28;20407;-74
2023/04/26 10:21:40;;;;;;;;;;;;;;;10.03;47.04;100875.72;5054156;28;20312;-74
2023/04/26 10:24:44;;;;;;;;;;;;;;;10.12;45.97;100871.88;5053959;28;19927;-74
2023/04/26 10:27:48;;;;;;;;;;;;;;;10.29;46.71;100865.91;5054361;28;19923;-74
2023/04/26 10:30:55;;;;;;;;;;;;;;;10.35;45.04;100866.47;5053910;28;19971;-74
2023/04/26 10:34:17;;;;;;;;;;;;;;;10.27;44.18;100865.97;5054230;28;20336;-74
2023/04/26 10:37:20;;;;;;;;;;;;;;;10.37;44.38;100869.88;5053612;28;19924;-74
2023/04/26 10:40:24;;;;;;;;;;;;;;;10.47;43.50;100855.44;5041045;28;20463;-70
2023/04/26 10:43:28;;;;;;;;;;;;;;;10.64;43.98;100859.88;5053104;28;19963;-69
2023/04/26 10:46:32;;;;;;;;;;;;;;;10.79;43.30;100850.47;5052362;28;20062;-69
2023/04/26 10:49:44;;;;;;;;;;;;;;;10.88;43.59;100844.81;5053313;28;20335;-69
2023/04/26 10:53:03;;;;;;;;;;;;;;;10.79;43.01;100840.00;5053554;28;19966;-70
2023/04/26 10:56:06;;;;;;;;;;;;;;;10.74;42.66;100839.38;5053574;28;19927;-70
2023/04/26 10:59:14;;;;;;;;;;;;;;;10.54;44.06;100840.31;5041346;28;20011;-70
2023/04/26 11:02:37;;;;;;;;;;;;;;;10.60;43.73;100844.44;5053345;28;20017;-70
2023/04/26 11:05:49;;;;;;;;;;;;;;;10.21;42.49;100842.69;5051950;28;19928;-70
2023/04/26 11:08:53;;;;;;;;;;;;;;;10.38;42.53;100834.97;5052859;28;19924;-70
2023/04/26 11:11:56;;;;;;;;;;;;;;;10.43;42.90;100832.13;5051831;28;19946;-70
2023/04/26 11:14:59;;;;;;;;;;;;;;;10.10;42.51;100837.13;5052953;28;20350;-70
2023/04/26 11:18:03;;;;;;;;;;;;;;;10.32;44.13;100824.78;5053140;28;19999;-70
2023/04/26 11:21:06;;;;;;;;;;;;;;;10.50;43.67;100823.09;5052956;28;19924;-70
2023/04/26 11:24:09;;;;;;;;;;;;;;;10.69;43.48;100823.06;5052859;28;19942;-70
2023/04/26 11:27:13;;;;;;;;;;;;;;;11.03;43.28;100810.94;5053188;28;20020;-70
2023/04/26 11:30:20;;;;;;;;;;;;;;;11.09;41.03;100811.47;5053268;28;20070;-70
2023/04/26 11:33:23;;;;;;;;;;;;;;;10.96;40.13;100814.78;5052964;28;19939;-70
2023/04/26 11:36:27;;;;;;;;;;;;;;;11.11;38.60;100812.25;5053167;28;19924;-70
2023/04/26 11:39:33;;;;;;;;;;;;;;;10.82;38.18;100813.72;5052906;28;19989;-70
2023/04/26 11:42:36;;;;;;;;;;;;;;;10.64;38.34;100804.13;5052599;28;19939;-70
2023/04/26 11:45:41;;;;;;;;;;;;;;;10.69;39.45;100810.84;5052575;28;19928;-70
2023/04/26 11:48:44;;;;;;;;;;;;;;;10.78;39.10;100812.13;5052811;28;19923;-70
2023/04/26 11:51:48;;;;;;;;;;;;;;;10.44;39.34;100810.31;5052989;28;19996;-70
2023/04/26 11:55:00;;;;;;;;;;;;;;;10.66;39.30;100807.53;5053059;28;19940;-70
2023/04/26 11:58:11;;;;;;;;;;;;;;;10.63;39.52;100805.06;5052426;28;19974;-69
2023/04/26 12:01:22;;;;;;;;;;;;;;;10.94;39.42;100805.25;5052775;28;19963;-71
2023/04/26 12:04:26;;;;;;;;;;;;;;;11.38;39.67;100799.53;5052589;28;19931;-69
2023/04/26 12:07:36;;;;;;;;;;;;;;;11.14;38.65;100792.94;5052639;28;19955;-69
2023/04/26 12:10:40;;;;;;;;;;;;;;;11.33;39.84;100798.94;5052553;28;19923;-69
2023/04/26 12:13:44;;;;;;;;;;;;;;;11.66;39.79;100795.50;5052525;28;20318;-70
2023/04/26 12:16:47;;;;;;;;;;;;;;;11.84;38.98;100789.34;5052483;28;20000;-70
2023/04/26 12:19:50;;;;;;;;;;;;;;;11.97;38.40;100792.13;5040062;28;20340;-69
2023/04/26 12:23:10;;;;;;;;;;;;;;;11.86;38.91;100797.94;5052724;28;20018;-71
2023/04/26 12:26:13;;;;;;;;;;;;;;;12.00;38.81;100785.88;5052354;28;20289;-71
2023/04/26 12:29:16;;;;;;;;;;;;;;;12.05;37.68;100784.69;5052694;28;19963;-71
2023/04/26 12:32:20;;;;;;;;;;;;;;;12.10;39.28;100781.84;5054003;28;19961;-70
2023/04/26 12:35:23;;;;;;;;;;;;;;;12.26;39.69;100780.06;5056217;28;20423;-69
2023/04/26 12:38:27;;;;;;;;;;;;;;;12.38;37.82;100783.78;5055935;28;19924;-70
2023/04/26 12:41:30;;;;;;;;;;;;;;;12.07;36.40;100784.63;5043924;28;20328;-70
2023/04/26 12:44:33;;;;;;;;;;;;;;;12.00;37.21;100776.25;5055776;28;20304;-73
2023/04/26 12:47:36;;;;;;;;;;;;;;;12.26;37.84;100774.81;5055739;28;19927;-72
2023/04/26 12:50:40;;;;;;;;;;;;;;;12.26;36.32;100769.56;5053965;28;19969;-71
2023/04/26 12:53:43;;;;;;;;;;;;;;;12.30;36.53;100780.72;5054918;28;19923;-71
2023/04/26 12:56:47;;;;;;;;;;;;;;;12.72;37.66;100771.38;5054371;28;19928;-73
2023/04/26 12:59:50;;;;;;;;;;;;;;;13.29;37.55;100771.56;5054414;28;20371;-71
2023/04/26 13:02:54;;;;;;;;;;;;;;;13.64;33.50;100776.47;5055054;28;19986;-71
2023/04/26 13:05:57;;;;;;;;;;;;;;;13.41;33.13;100770.00;5054905;28;19928;-72
2023/04/26 13:09:01;;;;;;;;;;;;;;;13.28;33.05;100774.31;5055387;28;19959;-71
2023/04/26 13:12:04;;;;;;;;;;;;;;;13.18;34.66;100768.72;5055834;28;19927;-72
2023/04/26 13:15:08;;;;;;;;;;;;;;;13.44;33.58;100775.91;5055367;28;19924;-71
2023/04/26 13:18:12;;;;;;;;;;;;;;;13.32;32.77;100773.19;5055275;28;20431;-72
2023/04/26 13:21:15;;;;;;;;;;;;;;;13.65;32.91;100771.13;5063997;28;20459;-71
2023/04/26 13:24:19;;;;;;;;;;;;;;;14.16;33.23;100771.44;5049721;28;20046;-72
2023/04/26 13:27:22;;;;;;;;;;;;;;;14.10;31.97;100768.34;5062269;28;19923;-72
2023/04/26 13:30:26;;;;;;;;;;;;;;;14.15;32.02;100775.03;5064315;28;19978;-72
2023/04/26 13:33:29;;;;;;;;;;;;;;;14.16;31.52;100768.81;5052763;28;20284;-71
2023/04/26 13:36:33;;;;;;;;;;;;;;;14.06;33.14;100762.44;5053381;28;19924;-71
2023/04/26 13:39:37;;;;;;;;;;;;;;;14.35;32.95;100759.75;5061783;28;19942;-72
2023/04/26 13:42:41;;;;;;;;;;;;;;;15.39;32.00;100750.22;5049246;28;19924;-72
2023/04/26 13:45:45;;;;;;;;;;;;;;;15.86;29.92;100743.47;5063421;28;19979;-73
2023/04/26 13:48:48;;;;;;;;;;;;;;;17.36;29.23;100737.66;5061007;28;19924;-73
2023/04/26 13:51:54;;;;;;;;;;;;;;;17.16;28.06;100733.03;5061742;28;19985;-72
2023/04/26 13:54:57;;;;;;;;;;;;;;;17.94;26.80;100726.13;5057984;28;19963;-70
2023/04/26 13:58:00;;;;;;;;;;;;;;;17.52;26.33;100723.25;5063527;28;20399;-70
2023/04/26 14:01:03;;;;;;;;;;;;;;;17.33;26.18;100723.84;5064144;28;19939;-70
2023/04/26 14:04:06;;;;;;;;;;;;;;;16.50;27.03;100727.41;5063464;28;20390;-69
2023/04/26 14:07:10;;;;;;;;;;;;;;;15.72;27.25;100725.13;5060790;28;19947;-70
2023/04/26 14:10:14;;;;;;;;;;;;;;;16.54;27.13;100730.66;5060979;28;20281;-70
2023/04/26 14:13:20;;;;;;;;;;;;;;;16.73;27.18;100715.97;5061516;28;20209;-70
2023/04/26 14:16:23;;;;;;;;;;;;;;;16.21;26.74;100719.84;5062972;28;19977;-71
2023/04/26 14:19:26;;;;;;;;;;;;;;;15.89;27.41;100714.25;5063273;28;19974;-70
2023/04/26 14:22:30;;;;;;;;;;;;;;;15.42;27.86;100717.56;5061575;28;19996;-74
2023/04/26 14:25:33;;;;;;;;;;;;;;;17.14;25.49;100711.19;5060001;28;19974;-70
2023/04/26 14:28:36;;;;;;;;;;;;;;;20.03;22.41;100704.06;5060925;28;19927;-71
2023/04/26 14:31:43;;;;;;;;;;;;;;;21.32;20.58;100709.91;5061709;28;20005;-71
2023/04/26 14:34:48;;;;;;;;;;;;;;;21.99;19.80;100707.94;5072796;28;19965;-70
2023/04/26 14:37:51;;;;;;;;;;;;;;;21.83;19.35;100705.91;5072675;28;20403;-71
2023/04/26 14:40:57;;;;;;;;;;;;;;;21.37;20.53;100704.16;5072536;28;19939;-70
2023/04/26 14:44:00;;;;;;;;;;;;;;;23.08;19.52;100694.44;5072656;28;20008;-74
2023/04/26 14:47:03;;;;;;;;;;;;;;;25.70;17.81;100690.19;5072420;28;19926;-72
2023/04/26 14:50:07;;;;;;;;;;;;;;;26.69;15.86;100684.22;5072451;28;19931;-72
2023/04/26 14:53:10;;;;;;;;;;;;;;;27.10;14.51;100680.13;5057360;28;19939;-71
2023/04/26 14:56:13;;;;;;;;;;;;;;;26.99;14.51;100685.94;5062461;28;19927;-71
2023/04/26 14:59:16;;;;;;;;;;;;;;;26.76;14.64;100679.78;5057312;28;19974;-71
2023/04/26 15:02:20;;;;;;;;;;;;;;;27.98;14.10;100680.25;5062525;28;19922;-71
2023/04/26 15:05:26;;;;;;;;;;;;;;;28.35;13.51;100676.47;5073188;28;20017;-72
2023/04/26 15:08:29;;;;;;;;;;;;;;;26.70;14.75;100675.16;5073224;28;19970;-71
2023/04/26 15:11:35;;;;;;;;;;;;;;;24.33;15.21;100684.88;5073170;28;19923;-72
2023/04/26 15:14:41;;;;;;;;;;;;;;;24.20;16.35;100679.19;5073076;28;19943;-71
2023/04/26 15:17:45;;;;;;;;;;;;;;;21.67;18.11;100686.25;5061026;28;19962;-71
2023/04/26 15:20:48;;;;;;;;;;;;;;;19.92;20.41;100687.31;5073049;28;19923;-71
2023/04/26 15:23:52;;;;;;;;;;;;;;;19.51;22.12;100688.25;5072847;28;20423;-72
2023/04/26 15:27:00;;;;;;;;;;;;;;;18.22;22.80;100692.97;5072932;28;19931;-71
2023/04/26 15:30:04;;;;;;;;;;;;;;;21.45;20.98;100688.31;5068883;28;20383;-73
2023/04/26 15:33:08;;;;;;;;;;;;;;;22.72;18.68;100685.66;5059579;28;19985;-71
2023/04/26 15:36:11;;;;;;;;;;;;;;;24.33;17.00;100669.69;5073178;28;20415;-71
2023/04/26 15:39:15;;;;;;;;;;;;;;;23.66;17.92;100663.50;5072905;28;19922;-72
2023/04/26 15:42:18;;;;;;;;;;;;;;;24.66;17.09;100664.34;5072783;28;19970;-71
2023/04/26 15:45:21;;;;;;;;;;;;;;;24.94;16.24;100667.50;5072629;28;20070;-70
2023/04/26 15:48:25;;;;;;;;;;;;;;;24.84;16.49;100658.84;5060336;28;19927;-71
2023/04/26 15:51:28;;;;;;;;;;;;;;;24.08;17.21;100659.97;5061683;28;20017;-70
2023/04/26 15:54:32;;;;;;;;;;;;;;;24.27;16.50;100656.97;5057567;28;20050;-70
2023/04/26 15:57:35;;;;;;;;;;;;;;;21.59;19.07;100671.03;5058200;28;19970;-71
2023/04/26 16:01:02;;;;;;;;;;;;;;;22.32;20.18;100668.31;5059386;28;20008;-72
2023/04/26 16:04:05;;;;;;;;;;;;;;;22.95;19.68;100668.19;5060176;28;19932;-72
2023/04/26 16:07:09;;;;;;;;;;;;;;;20.38;20.99;100672.53;5062752;28;19927;-72
2023/04/26 16:10:13;;;;;;;;;;;;;;;19.24;23.74;100671.13;5059960;28;19926;-72
2023/04/26 16:13:15;;;;;;;;;;;;;;;19.31;23.98;100674.09;5063713;28;20015;-72
2023/04/26 16:16:18;;;;;;;;;;;;;;;17.79;26.78;100676.13;5062662;28;19924;-72